Portada
METAR-TAF:

METAR-TAF

Aeropuertos :

Guilin, China

latitud: 25-20N, longitud: 110-18E, altitud: 166 m

Observación

El informe se hizo hace 13 minutos, a las 23:00 UTC
Viento 12 kt del este-noreste
Temperatura 16°C
Humedad 82%
Presión 1018 hPa
Visibilidad 10 km o más
Nubes dispersas a una altura de 3300 ft
Cielo nuboso a una altura de 4300 ft

METAR: ZGKL 172300Z 06006MPS 9999 SCT033 BKN043 16/13 Q1018 NOSIG

Hora: 07:13 (23:13 UTC)

Pronóstico

El informe se hizo hace 8 horas y 1 minutos, a las 15:12 UTC
Pronóstico válido del 17 a las 18 UTC al 18 a las 18 UTC
Viento 6 kt del noreste
Visibilidad: 5000 m
Nubes dispersas a una altura de 2000 ft
Cielo cubierto a una altura de 4000 ft
neblina

TAF: ZGKL 171512Z 1718/1818 05003MPS 5000 BR SCT020 OVC040 TX20/1807Z TN17/1722Z

Observaciones y pronósticos meteorológicos de más de 4000 aeropuertos (mensajes METAR y TAF).

Los puntos amarillos y rojos representan las estaciones disponibles.

Ponga el ratón en el punto deseado para ver el nombre de la estación.

Haga clic para ver las observaciones y los pronósticos meteorológicos.

Para cambiar el mapa : haga clic en los botones verdes con una cruz de color negro para hacer un zoom, en el botón verde con un guión para alejar o en las flechas verdes para mapas adyacentes.


METAR-TAF: